Time;durP1;ratioP1;P1;durP2;ratioP2;P2;SDS_P1;SDS_P2;PMS_P1;PMS_P2;Temp;Humidity;BMP_temperature;BMP_pressure;BME280_temperature;BME280_humidity;BME280_pressure;Samples;Min_cycle;Max_cycle;Signal;HPM_P1;HPM_P2
2024/02/11 00:01:33;;;;;;;;;;;;;;;;;;;;;
2024/02/11 00:04:31;;;;;;;;;5.00;5.00;;;;;17.03;47.71;100518.72;146618;604;46016;-74
2024/02/11 00:07:29;;;;;;;;;8.25;7.25;;;;;17.02;47.68;100522.19;146622;618;46010;-74
2024/02/11 00:10:24;;;;;;;;;16.75;15.00;;;;;17.02;47.78;100518.69;146614;564;46017;-78
2024/02/11 00:13:20;;;;;;;;;6.00;6.00;;;;;16.99;48.10;100509.03;146619;574;46010;-80
2024/02/11 00:16:20;;;;;;;;;9.00;5.50;;;;;17.03;47.55;100513.47;146616;618;47015;-75
2024/02/11 00:19:13;;;;;;;;;7.00;5.25;;;;;17.04;45.77;100506.50;146621;591;46020;-73
2024/02/11 00:22:11;;;;;;;;;5.00;4.00;;;;;17.02;48.52;100527.44;146618;651;46014;-75
2024/02/11 00:25:06;;;;;;;;;6.75;5.00;;;;;17.03;48.73;100520.44;146619;660;46020;-71
2024/02/11 00:28:31;;;;;;;;;7.00;4.50;;;;;17.05;49.33;100524.87;146617;590;46031;-72
2024/02/11 00:31:35;;;;;;;;;4.50;3.75;;;;;17.00;47.03;100529.13;146622;565;46011;-81
2024/02/11 00:34:39;;;;;;;;;6.50;4.50;;;;;17.07;48.38;100535.37;146616;577;47012;-73
2024/02/11 00:37:41;;;;;;;;;4.25;4.00;;;;;17.10;47.13;100538.06;146621;599;46011;-73
2024/02/11 00:40:35;;;;;;;;;6.00;5.25;;;;;17.09;49.61;100516.22;146615;618;46016;-77
2024/02/11 00:43:40;;;;;;;;;0.00;0.00;;;;;17.07;50.97;100506.56;146622;563;46010;-77
2024/02/11 00:46:34;;;;;;;;;0.00;0.00;;;;;17.01;50.59;100515.19;146617;620;46017;-70
2024/02/11 00:49:38;;;;;;;;;4.50;4.50;;;;;16.97;50.96;100487.16;146619;661;46020;-69
2024/02/11 00:52:31;;;;;;;;;4.50;4.50;;;;;16.97;50.96;100499.34;146617;611;46014;-70
2024/02/11 00:55:35;;;;;;;;;6.50;6.25;;;;;16.96;50.97;100493.25;146622;693;46020;-70
2024/02/11 00:58:40;;;;;;;;;5.00;3.75;;;;;16.92;51.71;100485.31;146617;663;46915;-69
2024/02/11 01:01:35;;;;;;;;;8.25;5.50;;;;;16.87;51.96;100469.47;146618;635;48010;-70
2024/02/11 01:04:29;;;;;;;;;6.00;5.50;;;;;16.91;50.67;100473.03;146615;650;46016;-69
2024/02/11 01:07:25;;;;;;;;;8.00;5.50;;;;;16.89;50.36;100469.53;146611;608;46915;-73
2024/02/11 01:10:24;;;;;;;;;5.75;5.50;;;;;16.90;50.09;100477.41;146616;591;46016;-74
2024/02/11 01:13:33;;;;;;;;;5.00;4.00;;;;;16.83;51.21;100472.88;146621;594;46010;-73
2024/02/11 01:16:35;;;;;;;;;4.50;3.25;;;;;16.77;51.60;100471.00;146617;580;46017;-74
2024/02/11 01:19:44;;;;;;;;;5.00;5.00;;;;;16.78;50.26;100479.75;146620;676;47010;-72
2024/02/11 01:22:50;;;;;;;;;3.00;3.00;;;;;16.82;51.20;100478.94;146619;570;46012;-75
2024/02/11 01:25:46;;;;;;;;;4.75;4.75;;;;;16.82;50.53;100472.00;146623;591;46012;-69
2024/02/11 01:28:49;;;;;;;;;5.75;5.75;;;;;16.85;49.97;100476.41;146616;716;46017;-69
2024/02/11 01:31:45;;;;;;;;;5.75;3.50;;;;;16.87;49.73;100473.84;146619;664;46012;-68
2024/02/11 01:34:52;;;;;;;;;6.00;5.00;;;;;16.87;50.50;100487.81;146617;563;46012;-72
2024/02/11 01:37:55;;;;;;;;;5.25;5.00;;;;;16.83;51.58;100478.13;146621;591;46010;-72
2024/02/11 01:40:50;;;;;;;;;8.75;7.50;;;;;16.83;50.95;100483.38;146615;604;46016;-69
2024/02/11 01:44:01;;;;;;;;;9.00;6.00;;;;;16.82;51.91;100474.63;146621;602;47010;-71
2024/02/11 01:46:59;;;;;;;;;7.25;5.25;;;;;16.80;55.04;100471.06;146617;647;46016;-73
2024/02/11 01:49:58;;;;;;;;;6.00;6.00;;;;;16.75;54.84;100464.84;146619;564;46020;-70
2024/02/11 01:52:52;;;;;;;;;10.00;4.00;;;;;16.65;55.40;100461.97;146617;651;46014;-71
2024/02/11 01:55:49;;;;;;;;;7.25;5.00;;;;;16.65;55.09;100467.22;146621;696;46010;-69
2024/02/11 01:58:51;;;;;;;;;6.00;5.00;;;;;16.66;55.33;100461.09;146616;581;47012;-71
2024/02/11 02:01:56;;;;;;;;;6.00;4.00;;;;;16.60;55.26;100467.09;146623;591;46030;-67
2024/02/11 02:04:51;;;;;;;;;5.00;4.25;;;;;16.55;55.45;100455.66;146618;710;46012;-70
2024/02/11 02:07:59;;;;;;;;;7.25;5.00;;;;;16.55;56.01;100453.03;146620;615;46021;-69
2024/02/11 02:10:58;;;;;;;;;7.50;5.25;;;;;16.55;54.87;100466.12;146618;621;46014;-72
2024/02/11 02:13:53;;;;;;;;;6.75;6.00;;;;;16.59;54.17;100460.09;146621;676;46021;-72
2024/02/11 02:17:00;;;;;;;;;6.50;6.00;;;;;14.61;55.11;100125.16;146615;573;46029;-73
2024/02/11 02:19:55;;;;;;;;;6.50;5.25;;;;;16.58;55.60;100468.81;146618;571;46020;-75
2024/02/11 02:22:57;;;;;;;;;5.00;4.00;;;;;16.56;55.86;100471.37;146618;572;46012;-72
2024/02/11 02:25:57;;;;;;;;;5.25;4.25;;;;;16.56;58.02;100470.50;146622;569;46010;-74
2024/02/11 02:28:52;;;;;;;;;8.75;6.50;;;;;16.53;56.31;100479.16;146616;682;46015;-74
2024/02/11 02:31:48;;;;;;;;;7.75;5.75;;;;;16.49;57.01;100482.56;146623;693;46010;-75
2024/02/11 02:34:47;;;;;;;;;7.00;4.00;;;;;16.43;57.05;100466.72;146618;728;46016;-75
2024/02/11 02:37:48;;;;;;;;;5.25;4.00;;;;;16.39;57.70;100462.25;146620;571;46020;-72
2024/02/11 02:40:43;;;;;;;;;4.25;4.25;;;;;16.39;56.84;100464.88;146620;573;46016;-76
2024/02/11 02:43:38;;;;;;;;;6.00;4.25;;;;;16.39;55.75;100451.78;146621;606;46020;-73
2024/02/11 02:46:55;;;;;;;;;3.75;2.75;;;;;14.17;54.62;100081.37;146618;606;47012;-75
2024/02/11 02:49:50;;;;;;;;;4.50;3.00;;;;;16.43;54.84;100451.00;146623;568;46010;-73
2024/02/11 02:52:57;;;;;;;;;6.00;4.00;;;;;16.47;54.57;100452.84;146616;575;46012;-73
2024/02/11 02:55:53;;;;;;;;;4.50;4.50;;;;;16.51;53.22;100457.31;146619;653;47020;-75
2024/02/11 02:58:56;;;;;;;;;4.75;4.50;;;;;16.56;52.79;100441.69;146617;599;46914;-76
2024/02/11 03:01:51;;;;;;;;;2.50;2.50;;;;;16.56;52.97;100432.09;146621;602;46010;-72
2024/02/11 03:04:53;;;;;;;;;6.00;4.25;;;;;16.57;53.11;100426.03;146619;598;46012;-71
2024/02/11 03:07:48;;;;;;;;;6.50;3.00;;;;;16.58;53.39;100405.97;146615;564;46020;-74
2024/02/11 03:10:54;;;;;;;;;6.00;4.50;;;;;16.60;53.04;100451.38;146617;651;47012;-71
2024/02/11 03:13:52;;;;;;;;;5.00;2.75;;;;;16.63;53.42;100420.94;146618;605;46021;-70
2024/02/11 03:16:49;;;;;;;;;4.67;4.67;;;;;16.63;53.20;100425.28;146617;579;46016;-70
2024/02/11 03:20:02;;;;;;;;;4.00;3.50;;;;;15.15;52.83;100143.91;146622;590;46010;-70
2024/02/11 03:23:16;;;;;;;;;4.00;3.75;;;;;16.62;54.25;100405.19;146619;581;46017;-71
2024/02/11 03:26:17;;;;;;;;;4.50;4.50;;;;;16.56;54.45;100416.41;146616;570;47010;-69
2024/02/11 03:29:22;;;;;;;;;5.75;3.25;;;;;16.60;53.73;100399.94;146617;653;46017;-69
2024/02/11 03:32:22;;;;;;;;;9.50;7.25;;;;;16.62;53.76;100395.59;146618;618;46010;-70
2024/02/11 03:35:22;;;;;;;;;5.67;4.67;;;;;16.63;53.30;100394.78;146619;582;46016;-71
2024/02/11 03:38:19;;;;;;;;;6.50;5.75;;;;;16.63;53.33;100402.63;146620;563;46020;-71
2024/02/11 03:41:22;;;;;;;;;5.25;4.75;;;;;16.62;53.34;100406.06;146620;576;46012;-74
2024/02/11 03:44:22;;;;;;;;;5.00;4.00;;;;;15.69;52.84;100253.16;146621;569;46021;-76
2024/02/11 03:47:18;;;;;;;;;7.00;2.00;;;;;16.62;52.39;100413.91;146617;646;46016;-71
2024/02/11 03:50:19;;;;;;;;;5.75;4.75;;;;;16.64;52.19;100398.25;146621;660;46020;-69
2024/02/11 03:53:15;;;;;;;;;4.50;3.00;;;;;16.58;52.85;100413.84;146618;622;46016;-73
2024/02/11 03:56:10;;;;;;;;;3.00;2.00;;;;;16.61;53.16;100454.03;146620;579;47020;-75
2024/02/11 03:59:14;;;;;;;;;5.00;4.25;;;;;16.59;52.96;100416.47;146616;623;47017;-72
2024/02/11 04:02:09;;;;;;;;;5.50;4.00;;;;;16.60;53.15;100419.97;146620;632;47010;-68
2024/02/11 04:05:02;;;;;;;;;2.25;2.00;;;;;15.92;53.82;100313.84;146613;730;47013;-69
2024/02/11 04:07:56;;;;;;;;;2.50;2.25;;;;;16.57;53.16;100436.50;146621;727;46020;-69
2024/02/11 04:10:53;;;;;;;;;5.00;5.00;;;;;16.58;53.06;100426.94;146616;569;46014;-70
2024/02/11 04:13:49;;;;;;;;;3.00;2.00;;;;;16.58;52.80;100432.16;146620;576;46021;-69
2024/02/11 04:16:47;;;;;;;;;3.75;3.75;;;;;16.60;51.71;100427.81;146616;685;47012;-70
2024/02/11 04:19:49;;;;;;;;;3.75;2.00;;;;;16.57;51.86;100417.28;146620;571;46021;-70
2024/02/11 04:22:51;;;;;;;;;4.00;2.50;;;;;16.56;51.67;100426.87;146619;578;46016;-69
2024/02/11 04:25:45;;;;;;;;;3.00;2.00;;;;;16.58;51.65;100412.09;146618;705;48012;-68
2024/02/11 04:28:47;;;;;;;;;3.00;2.00;;;;;16.56;52.16;100421.62;146616;722;46013;-74
2024/02/11 04:31:50;;;;;;;;;0.00;0.00;;;;;16.53;51.04;100397.13;146622;715;46010;-73
2024/02/11 04:35:05;;;;;;;;;4.00;3.00;;;;;16.51;51.64;100415.44;146617;570;46018;-74
2024/02/11 04:38:12;;;;;;;;;3.00;3.00;;;;;16.51;51.21;100404.97;146618;585;46031;-72
2024/02/11 04:41:15;;;;;;;;;4.25;3.00;;;;;16.52;52.40;100406.72;146616;693;46016;-74
2024/02/11 04:44:15;;;;;;;;;3.25;2.25;;;;;16.51;54.12;100399.72;146621;575;46046;-71
2024/02/11 04:47:15;;;;;;;;;5.25;3.00;;;;;16.51;53.19;100389.28;146618;644;46012;-70
2024/02/11 04:50:23;;;;;;;;;3.25;2.00;;;;;16.48;54.18;100386.59;146620;682;46021;-70
2024/02/11 04:53:17;;;;;;;;;4.50;2.75;;;;;16.50;53.07;100381.38;146616;575;46016;-69
2024/02/11 04:56:12;;;;;;;;;2.75;2.00;;;;;16.49;54.17;100370.03;146616;575;46021;-71
2024/02/11 04:59:08;;;;;;;;;9.00;4.00;;;;;16.47;53.48;100356.00;146620;564;46012;-69
2024/02/11 05:02:16;;;;;;;;;6.00;3.50;;;;;16.45;54.58;100357.72;146619;681;46020;-69
2024/02/11 05:05:15;;;;;;;;;5.50;3.00;;;;;16.43;54.63;100332.37;146619;669;46013;-69
2024/02/11 05:08:16;;;;;;;;;5.50;3.25;;;;;16.43;53.90;100324.53;146618;604;47010;-71
2024/02/11 05:11:11;;;;;;;;;5.50;4.00;;;;;16.40;54.51;100309.62;146618;634;46017;-72
2024/02/11 05:14:07;;;;;;;;;7.50;3.50;;;;;16.38;53.95;100316.56;146621;658;46010;-70
2024/02/11 05:17:08;;;;;;;;;6.50;5.50;;;;;16.34;53.96;100310.38;146615;661;47012;-73
2024/02/11 05:20:05;;;;;;;;;4.75;3.25;;;;;16.36;53.39;100337.47;146620;577;46021;-70
2024/02/11 05:23:02;;;;;;;;;6.00;4.75;;;;;16.38;53.25;100334.88;146617;609;47012;-70
2024/02/11 05:26:02;;;;;;;;;6.75;4.25;;;;;16.37;52.47;100336.63;146622;616;46020;-71
2024/02/11 05:29:09;;;;;;;;;5.50;2.00;;;;;16.43;51.59;100366.37;146617;676;46016;-73
2024/02/11 05:32:06;;;;;;;;;5.75;4.25;;;;;16.46;52.32;100374.31;146621;604;46020;-73
2024/02/11 05:35:19;;;;;;;;;3.00;3.00;;;;;14.60;51.32;100053.81;146618;570;46013;-72
2024/02/11 05:38:26;;;;;;;;;4.00;2.75;;;;;16.48;50.63;100381.34;146618;673;46020;-72
2024/02/11 05:41:23;;;;;;;;;4.00;4.00;;;;;16.54;50.65;100372.72;146616;566;47012;-73
2024/02/11 05:44:24;;;;;;;;;2.75;2.75;;;;;16.53;51.60;100386.66;146622;643;46020;-71
2024/02/11 05:47:28;;;;;;;;;2.50;2.50;;;;;16.51;51.35;100415.44;146615;618;46016;-71
2024/02/11 05:50:24;;;;;;;;;5.00;3.50;;;;;16.54;51.64;100405.03;146616;580;46020;-73
2024/02/11 05:53:21;;;;;;;;;5.25;4.00;;;;;16.54;51.79;100401.50;146618;563;46016;-70
2024/02/11 05:56:20;;;;;;;;;6.50;3.75;;;;;16.56;51.52;100399.81;146618;579;46021;-70
2024/02/11 05:59:22;;;;;;;;;5.00;2.50;;;;;16.56;51.52;100381.50;146619;700;46016;-70
2024/02/11 06:02:16;;;;;;;;;4.50;2.50;;;;;16.56;51.80;100382.38;146621;565;46010;-71
2024/02/11 06:05:46;;;;;;;;;6.25;4.00;;;;;16.57;51.53;100394.62;146618;618;46915;-71
2024/02/11 06:08:50;;;;;;;;;5.00;4.25;;;;;16.60;50.73;100384.22;146618;709;46020;-70
2024/02/11 06:11:50;;;;;;;;;6.25;4.00;;;;;16.65;50.43;100397.41;146618;561;46913;-72
2024/02/11 06:14:49;;;;;;;;;5.50;4.00;;;;;16.65;50.53;100376.47;146619;611;47012;-73
2024/02/11 06:17:48;;;;;;;;;4.25;3.50;;;;;16.67;50.59;100389.59;146617;655;47012;-75
2024/02/11 06:21:01;;;;;;;;;5.25;4.00;;;;;16.60;51.53;100384.22;146619;636;47010;-72
2024/02/11 06:23:55;;;;;;;;;2.75;2.00;;;;;16.65;50.95;100402.63;146619;667;46017;-75
2024/02/11 06:27:03;;;;;;;;;;;;;;;;;;;;;
2024/02/11 06:30:04;;;;;;;;;3.50;2.25;;;;;16.66;51.05;100403.50;146617;595;46012;-72
2024/02/11 06:32:59;;;;;;;;;4.25;4.00;;;;;16.68;51.15;100391.34;146621;678;46012;-71
2024/02/11 06:36:01;;;;;;;;;4.75;3.00;;;;;16.70;51.98;100394.88;146617;587;46016;-73
2024/02/11 06:39:00;;;;;;;;;3.25;3.00;;;;;16.70;51.73;100393.16;146618;575;47020;-75
2024/02/11 06:42:05;;;;;;;;;6.00;3.75;;;;;16.67;52.30;100394.84;146620;566;46012;-69
2024/02/11 06:45:19;;;;;;;;;7.75;4.00;;;;;16.67;51.73;100377.38;146620;652;46020;-72
2024/02/11 06:48:19;;;;;;;;;6.25;3.50;;;;;16.68;52.07;100373.91;146618;565;46016;-72
2024/02/11 06:51:24;;;;;;;;;5.00;3.25;;;;;16.72;50.40;100380.09;146621;644;46010;-74
2024/02/11 06:54:29;;;;;;;;;4.75;4.25;;;;;16.73;50.03;100368.75;146618;657;46017;-70
2024/02/11 06:57:35;;;;;;;;;2.00;2.00;;;;;16.76;49.47;100346.19;146622;582;46010;-72
2024/02/11 07:00:32;;;;;;;;;3.75;2.00;;;;;16.80;47.80;100355.00;146615;573;47016;-71
2024/02/11 07:03:51;;;;;;;;;1.25;1.25;;;;;16.83;48.74;100368.16;146620;725;46021;-72
2024/02/11 07:06:48;;;;;;;;;5.50;2.25;;;;;16.88;48.81;100369.09;146616;571;46016;-71
2024/02/11 07:09:41;;;;;;;;;2.75;2.00;;;;;16.93;47.62;100391.03;146615;575;46021;-73
2024/02/11 07:12:42;;;;;;;;;3.25;3.00;;;;;16.93;48.41;100379.69;146615;683;46012;-72
2024/02/11 07:15:41;;;;;;;;;2.50;1.75;;;;;16.93;48.53;100358.72;146622;690;46020;-72
2024/02/11 07:18:44;;;;;;;;;5.00;2.50;;;;;16.93;49.51;100369.19;146618;678;46016;-70
2024/02/11 07:21:42;;;;;;;;;3.00;2.75;;;;;16.94;48.42;100373.56;146621;598;46010;-75
2024/02/11 07:24:40;;;;;;;;;3.00;3.00;;;;;16.98;49.33;100372.81;146616;721;46016;-74
2024/02/11 07:27:33;;;;;;;;;8.00;5.00;;;;;17.00;49.47;100373.69;146621;576;46021;-74
2024/02/11 07:30:34;;;;;;;;;3.00;2.50;;;;;17.02;48.86;100374.62;146618;675;46913;-75
2024/02/11 07:33:31;;;;;;;;;7.75;4.75;;;;;17.02;48.87;100379.87;146621;579;46021;-74
2024/02/11 07:36:32;;;;;;;;;6.00;3.75;;;;;17.03;48.39;100371.16;146618;600;46014;-77
2024/02/11 07:39:28;;;;;;;;;9.00;7.00;;;;;17.04;48.50;100359.81;146620;573;46010;-74
2024/02/11 07:42:29;;;;;;;;;4.50;4.25;;;;;17.05;48.21;100346.75;146619;679;46012;-77
2024/02/11 07:45:27;;;;;;;;;4.50;3.00;;;;;17.08;48.17;100359.03;146621;563;48020;-75
2024/02/11 07:48:22;;;;;;;;;4.75;3.50;;;;;17.11;48.14;100366.06;146618;676;46017;-69
2024/02/11 07:51:21;;;;;;;;;6.75;5.00;;;;;17.09;48.21;100372.13;146620;569;46012;-71
2024/02/11 07:54:23;;;;;;;;;4.25;3.25;;;;;17.12;48.59;100381.81;146619;569;47012;-73
2024/02/11 07:57:37;;;;;;;;;5.25;2.50;;;;;17.15;48.55;100365.25;146623;565;46010;-69
2024/02/11 08:00:40;;;;;;;;;5.50;4.00;;;;;17.18;48.37;100368.81;146619;671;46016;-71
2024/02/11 08:03:38;;;;;;;;;4.75;4.00;;;;;17.19;48.23;100365.34;146618;572;46021;-71
2024/02/11 08:06:39;;;;;;;;;8.00;5.00;;;;;17.23;48.35;100377.66;146618;571;46012;-71
2024/02/11 08:09:41;;;;;;;;;4.75;3.75;;;;;17.26;48.09;100371.59;146618;636;47020;-72
2024/02/11 08:12:44;;;;;;;;;5.50;3.00;;;;;17.29;48.81;100371.66;146616;620;46016;-70
2024/02/11 08:15:43;;;;;;;;;4.75;4.00;;;;;17.30;49.06;100383.88;146619;571;46020;-72
2024/02/11 08:18:46;;;;;;;;;4.00;3.00;;;;;17.30;48.25;100352.44;146619;644;46017;-71
2024/02/11 08:21:40;;;;;;;;;3.00;3.00;;;;;17.28;49.37;100327.94;146621;664;46020;-69
2024/02/11 08:24:40;;;;;;;;;6.75;3.25;;;;;17.24;48.78;100332.25;146616;664;46016;-67
2024/02/11 08:28:04;;;;;;;;;4.00;3.00;;;;;17.23;48.84;100320.00;146622;572;46010;-70
2024/02/11 08:31:12;;;;;;;;;2.00;2.00;;;;;17.28;49.41;100312.22;146620;600;47013;-72
2024/02/11 08:34:21;;;;;;;;;3.25;2.25;;;;;17.27;49.40;100303.47;146622;577;46010;-71
2024/02/11 08:37:40;;;;;;;;;7.75;3.50;;;;;17.26;49.42;100295.59;146617;609;46911;-71
2024/02/11 08:40:47;;;;;;;;;5.00;3.75;;;;;17.25;49.54;100314.78;146618;644;46021;-75
2024/02/11 08:43:42;;;;;;;;;5.00;5.00;;;;;17.30;49.68;100281.69;146619;619;46016;-73
2024/02/11 08:46:39;;;;;;;;;8.25;5.50;;;;;17.33;50.21;100288.72;146618;647;46021;-71
2024/02/11 08:49:33;;;;;;;;;6.75;6.75;;;;;17.39;50.56;100273.97;146618;633;46012;-67
2024/02/11 08:52:35;;;;;;;;;5.50;5.00;;;;;17.41;51.53;100274.87;146622;724;46020;-70
2024/02/11 08:55:36;;;;;;;;;9.50;8.25;;;;;17.41;51.76;100280.13;146617;639;46016;-70
2024/02/11 08:58:32;;;;;;;;;9.00;9.00;;;;;17.42;52.51;100281.91;146621;612;46010;-75
2024/02/11 09:01:32;;;;;;;;;10.75;9.50;;;;;17.42;51.86;100300.25;146617;598;46030;-73
2024/02/11 09:04:33;;;;;;;;;12.50;11.00;;;;;17.46;52.40;100296.81;146620;601;46020;-74
2024/02/11 09:07:31;;;;;;;;;14.25;11.50;;;;;17.50;51.96;100288.13;146615;572;46013;-76
2024/02/11 09:10:25;;;;;;;;;9.25;9.25;;;;;17.56;51.38;100297.84;146616;636;46021;-73
2024/02/11 09:13:27;;;;;;;;;11.00;8.00;;;;;17.62;50.81;100283.94;146611;597;47016;-74
2024/02/11 09:16:36;;;;;;;;;10.50;8.25;;;;;15.62;50.03;99921.94;146621;581;47010;-74
2024/02/11 09:19:41;;;;;;;;;11.00;8.25;;;;;17.86;49.13;100281.72;146619;582;46012;-72
2024/02/11 09:22:43;;;;;;;;;8.50;7.00;;;;;17.95;49.22;100301.97;146621;583;46021;-76
2024/02/11 09:25:46;;;;;;;;;8.00;7.25;;;;;18.04;48.82;100270.63;146615;574;47012;-74
2024/02/11 09:28:42;;;;;;;;;9.50;7.50;;;;;18.16;48.03;100275.13;146620;583;46020;-74
2024/02/11 09:31:39;;;;;;;;;4.00;4.00;;;;;18.26;47.10;100289.28;146618;614;46016;-71
2024/02/11 09:34:47;;;;;;;;;6.00;6.00;;;;;16.51;46.01;99996.69;146618;570;46020;-73
2024/02/11 09:37:43;;;;;;;;;3.75;3.75;;;;;18.34;47.09;100269.25;146616;565;46916;-77
2024/02/11 09:40:40;;;;;;;;;5.00;3.00;;;;;18.45;46.59;100268.53;146621;617;46020;-76
2024/02/11 09:43:40;;;;;;;;;4.75;4.75;;;;;18.59;46.50;100255.53;146617;584;47012;-76
2024/02/11 09:46:44;;;;;;;;;6.25;6.00;;;;;18.79;46.91;100270.69;146622;634;46010;-76
2024/02/11 09:49:45;;;;;;;;;7.00;6.25;;;;;18.85;47.27;100255.88;146618;574;46012;-77
2024/02/11 09:52:40;;;;;;;;;5.50;3.75;;;;;18.79;46.29;100265.44;146622;569;46010;-79
2024/02/11 09:55:37;;;;;;;;;4.75;4.00;;;;;18.81;46.17;100240.03;146616;573;47012;-77
2024/02/11 09:58:35;;;;;;;;;3.25;3.25;;;;;18.81;46.57;100246.19;146623;703;46010;-73
2024/02/11 10:01:35;;;;;;;;;2.67;2.67;;;;;18.76;46.43;100240.00;146619;603;46017;-82
2024/02/11 10:04:39;;;;;;;;;8.25;5.00;;;;;18.73;46.23;100245.22;146621;586;46020;-79
2024/02/11 10:07:40;;;;;;;;;3.50;3.00;;;;;18.72;46.46;100219.78;146617;599;47017;-74
2024/02/11 10:10:45;;;;;;;;;;;;;;;;;;;;;
2024/02/11 10:13:42;;;;;;;;;3.75;2.50;;;;;18.68;46.23;100216.25;146617;595;46016;-74
2024/02/11 10:16:44;;;;;;;;;5.50;4.50;;;;;18.69;46.52;100220.66;146621;726;46020;-74
2024/02/11 10:19:40;;;;;;;;;7.00;6.75;;;;;18.67;46.37;100211.88;146617;609;46915;-75
2024/02/11 10:22:35;;;;;;;;;9.75;8.00;;;;;18.64;46.59;100216.22;146623;579;46010;-75
2024/02/11 10:25:47;;;;;;;;;5.75;3.75;;;;;18.62;47.26;100196.94;146617;612;46016;-74
2024/02/11 10:28:42;;;;;;;;;6.00;5.00;;;;;18.57;48.14;100206.53;146623;647;46010;-76
2024/02/11 10:31:53;;;;;;;;;5.00;3.67;;;;;18.61;48.01;100192.56;146619;581;46016;-73
2024/02/11 10:34:54;;;;;;;;;9.00;5.00;;;;;18.73;48.38;100191.84;146621;591;46020;-73
2024/02/11 10:37:49;;;;;;;;;5.75;3.75;;;;;19.08;50.32;100210.53;146618;564;46914;-72
2024/02/11 10:41:05;;;;;;;;;3.00;2.00;;;;;19.46;47.66;100221.31;146620;713;46012;-72
2024/02/11 10:44:04;;;;;;;;;3.75;3.00;;;;;19.61;47.74;100184.62;146619;583;46013;-73
2024/02/11 10:47:05;;;;;;;;;4.00;4.00;;;;;19.74;47.55;100179.47;146619;692;47020;-72
2024/02/11 10:50:24;;;;;;;;;4.00;3.00;;;;;19.99;47.22;100165.53;146615;569;46016;-75
2024/02/11 10:53:27;;;;;;;;;2.00;2.00;;;;;20.12;46.27;100155.06;146623;566;46013;-81
2024/02/11 10:56:34;;;;;;;;;2.67;2.67;;;;;20.01;45.76;100174.31;146616;571;47014;-73
2024/02/11 10:59:41;;;;;;;;;4.00;2.67;;;;;19.77;46.55;100153.16;146622;618;46010;-72
2024/02/11 11:02:42;;;;;;;;;5.00;1.33;;;;;19.53;46.22;100161.75;146619;579;46016;-71
2024/02/11 11:05:47;;;;;;;;;2.00;1.00;;;;;19.30;47.73;100148.50;146623;686;46020;-72
2024/02/11 11:08:56;;;;;;;;;7.00;5.75;;;;;19.10;47.53;100182.53;146617;618;46016;-70
2024/02/11 11:12:10;;;;;;;;;4.33;3.00;;;;;18.98;48.06;100174.53;146619;580;46020;-71
2024/02/11 11:15:33;;;;;;;;;5.00;2.00;;;;;18.88;48.08;100189.34;146616;579;46016;-71
2024/02/11 11:18:40;;;;;;;;;4.67;4.00;;;;;18.84;47.90;100164.78;146624;610;46010;-75
2024/02/11 11:22:08;;;;;;;;;1.33;1.00;;;;;18.84;48.79;100159.53;146617;586;46017;-70
2024/02/11 11:25:08;;;;;;;;;3.00;2.00;;;;;18.85;48.41;100150.78;146623;609;46030;-71
2024/02/11 11:28:39;;;;;;;;;4.75;3.00;;;;;16.89;49.50;99818.37;146619;694;46017;-72
2024/02/11 11:31:38;;;;;;;;;5.00;3.00;;;;;18.85;49.41;100168.31;146621;596;47010;-71
2024/02/11 11:34:38;;;;;;;;;2.00;2.00;;;;;18.86;49.82;100155.16;146617;631;46915;-71
2024/02/11 11:37:39;;;;;;;;;4.50;3.50;;;;;18.87;49.28;100145.53;146619;651;46010;-72
2024/02/11 11:40:37;;;;;;;;;5.25;3.25;;;;;18.87;49.34;100151.66;146617;650;47012;-72
2024/02/11 11:43:39;;;;;;;;;5.33;3.67;;;;;18.88;49.15;100137.69;146618;631;46020;-72
2024/02/11 11:46:46;;;;;;;;;6.00;3.00;;;;;18.88;49.46;100132.44;146616;719;46016;-73
2024/02/11 11:49:44;;;;;;;;;4.25;3.75;;;;;18.86;49.45;100142.03;146620;571;46020;-70
2024/02/11 11:52:50;;;;;;;;;3.33;2.00;;;;;18.82;49.61;100142.00;146619;688;46016;-70
2024/02/11 11:55:51;;;;;;;;;5.33;3.67;;;;;18.82;49.75;100150.75;146623;625;46020;-71
2024/02/11 11:59:17;;;;;;;;;4.00;4.00;;;;;18.82;50.36;100129.75;146619;576;46016;-71
2024/02/11 12:02:33;;;;;;;;;7.50;6.00;;;;;16.81;49.90;99793.81;146619;631;46020;-73
2024/02/11 12:05:35;;;;;;;;;8.25;7.25;;;;;18.79;51.25;100127.09;146618;570;46015;-72
2024/02/11 12:08:38;;;;;;;;;7.75;6.00;;;;;18.87;49.97;100127.16;146619;690;46021;-69
2024/02/11 12:11:39;;;;;;;;;3.75;3.75;;;;;18.95;49.73;100121.97;146616;624;46014;-73
2024/02/11 12:14:40;;;;;;;;;2.75;2.00;;;;;18.97;50.05;100122.84;146619;577;46010;-73
2024/02/11 12:17:36;;;;;;;;;6.25;5.75;;;;;19.02;49.93;100108.88;146617;600;46016;-72
2024/02/11 12:20:43;;;;;;;;;6.50;6.25;;;;;19.00;49.60;100101.84;146620;579;46010;-71
2024/02/11 12:23:39;;;;;;;;;7.50;5.25;;;;;19.02;49.30;100092.25;146616;634;46016;-70
2024/02/11 12:26:40;;;;;;;;;10.50;9.75;;;;;19.01;49.23;100083.47;146621;578;46024;-69
2024/02/11 12:29:42;;;;;;;;;4.25;3.25;;;;;19.07;48.58;100083.53;146616;621;46014;-71
2024/02/11 12:32:40;;;;;;;;;6.50;5.25;;;;;19.11;48.13;100079.16;146620;602;46020;-71
2024/02/11 12:35:38;;;;;;;;;6.50;5.75;;;;;19.10;47.66;100069.53;146619;641;46017;-73
2024/02/11 12:38:39;;;;;;;;;8.25;6.50;;;;;19.12;46.98;100073.03;146621;639;46020;-71
2024/02/11 12:41:43;;;;;;;;;6.00;5.00;;;;;19.09;47.11;100067.75;146618;602;46016;-71
2024/02/11 12:44:47;;;;;;;;;8.00;5.25;;;;;19.12;47.52;100050.25;146622;632;47010;-71
2024/02/11 12:47:44;;;;;;;;;7.50;7.25;;;;;19.13;47.36;100041.50;146617;637;46016;-71
2024/02/11 12:50:41;;;;;;;;;6.50;6.50;;;;;19.10;47.91;100033.63;146620;636;46020;-71
2024/02/11 12:53:41;;;;;;;;;6.00;6.00;;;;;19.11;47.99;100051.13;146616;566;46911;-74
2024/02/11 12:56:48;;;;;;;;;4.25;3.75;;;;;19.20;47.71;100058.19;146622;703;46020;-76
2024/02/11 12:59:52;;;;;;;;;4.00;4.00;;;;;19.38;47.44;100039.88;146619;655;46017;-71
2024/02/11 13:02:50;;;;;;;;;4.00;4.00;;;;;19.57;45.33;100055.75;146620;617;46023;-72
2024/02/11 13:05:45;;;;;;;;;5.00;3.50;;;;;19.65;46.78;100055.78;146617;590;46016;-73
2024/02/11 13:08:46;;;;;;;;;8.00;4.50;;;;;19.65;46.67;100043.50;146622;590;46010;-72
2024/02/11 13:11:42;;;;;;;;;4.00;2.00;;;;;19.75;45.95;100054.94;146621;654;46016;-71
2024/02/11 13:14:58;;;;;;;;;5.33;4.00;;;;;19.73;46.18;100040.94;146622;663;46010;-73
2024/02/11 13:17:57;;;;;;;;;3.33;3.33;;;;;19.68;46.14;100050.53;146619;577;46016;-73
2024/02/11 13:21:03;;;;;;;;;2.33;1.00;;;;;19.61;46.16;100049.63;146622;588;46020;-69
2024/02/11 13:23:59;;;;;;;;;4.00;3.33;;;;;19.55;46.21;100050.47;146620;561;46016;-71
2024/02/11 13:26:54;;;;;;;;;4.67;4.67;;;;;19.49;45.98;100041.69;146622;623;46020;-69
2024/02/11 13:29:47;;;;;;;;;4.00;3.00;;;;;19.43;45.67;100041.66;146617;620;47017;-71
2024/02/11 13:32:55;;;;;;;;;5.33;4.33;;;;;19.34;46.21;100048.59;146621;627;46020;-72
2024/02/11 13:35:47;;;;;;;;;5.33;3.00;;;;;19.39;46.36;100041.63;146619;633;46017;-72
2024/02/11 13:38:46;;;;;;;;;6.00;5.25;;;;;19.39;47.26;100031.13;146622;614;46010;-72
2024/02/11 13:41:48;;;;;;;;;6.75;4.00;;;;;19.43;46.90;100041.66;146616;676;46016;-69
2024/02/11 13:44:47;;;;;;;;;4.33;3.67;;;;;19.46;46.95;100039.03;146621;609;47010;-71
2024/02/11 13:47:42;;;;;;;;;3.33;3.33;;;;;19.49;46.23;100033.78;146617;624;46915;-71
2024/02/11 13:50:45;;;;;;;;;5.25;4.25;;;;;19.51;46.91;100024.16;146621;596;46010;-69
2024/02/11 13:53:47;;;;;;;;;5.00;4.00;;;;;19.52;46.89;100031.16;146619;692;47012;-70
2024/02/11 13:56:49;;;;;;;;;5.75;5.00;;;;;19.50;46.57;100032.91;146621;662;46020;-68
2024/02/11 13:59:44;;;;;;;;;5.00;4.25;;;;;19.48;46.72;100034.66;146610;565;47014;-70
2024/02/11 14:02:41;;;;;;;;;0.00;0.00;;;;;19.47;47.34;100030.25;146620;722;46020;-70
2024/02/11 14:05:34;;;;;;;;;5.00;2.33;;;;;19.45;47.46;100035.53;146618;663;46013;-69
2024/02/11 14:08:37;;;;;;;;;4.67;2.00;;;;;19.43;48.72;100025.88;146621;645;46020;-70